sensor_id;sensor_type;location;lat;lon;timestamp;temperature;humidity
1716;DHT22;855;48.824;9.220;2023-06-22T00:00:57;23.60;87.10
1716;DHT22;855;48.824;9.220;2023-06-22T00:03:25;23.60;86.90
1716;DHT22;855;48.824;9.220;2023-06-22T00:05:53;23.70;86.50
1716;DHT22;855;48.824;9.220;2023-06-22T00:08:21;23.60;86.60
1716;DHT22;855;48.824;9.220;2023-06-22T00:11:15;23.60;86.60
1716;DHT22;855;48.824;9.220;2023-06-22T00:13:42;23.50;87.50
1716;DHT22;855;48.824;9.220;2023-06-22T00:16:09;23.40;87.70
1716;DHT22;855;48.824;9.220;2023-06-22T00:18:36;23.40;87.50
1716;DHT22;855;48.824;9.220;2023-06-22T00:21:03;23.20;89.00
1716;DHT22;855;48.824;9.220;2023-06-22T00:23:33;23.20;89.10
1716;DHT22;855;48.824;9.220;2023-06-22T00:26:00;23.20;88.90
1716;DHT22;855;48.824;9.220;2023-06-22T00:28:28;23.10;89.10
1716;DHT22;855;48.824;9.220;2023-06-22T00:30:56;23.20;89.00
1716;DHT22;855;48.824;9.220;2023-06-22T00:33:23;23.00;89.50
1716;DHT22;855;48.824;9.220;2023-06-22T00:35:50;22.90;90.40
1716;DHT22;855;48.824;9.220;2023-06-22T00:38:18;22.90;90.40
1716;DHT22;855;48.824;9.220;2023-06-22T00:40:46;22.90;90.40
1716;DHT22;855;48.824;9.220;2023-06-22T00:43:13;22.90;90.60
1716;DHT22;855;48.824;9.220;2023-06-22T00:45:41;22.90;90.40
1716;DHT22;855;48.824;9.220;2023-06-22T00:48:08;23.00;90.30
1716;DHT22;855;48.824;9.220;2023-06-22T00:50:36;22.90;90.50
1716;DHT22;855;48.824;9.220;2023-06-22T00:53:05;22.90;90.40
1716;DHT22;855;48.824;9.220;2023-06-22T00:55:35;23.00;90.30
1716;DHT22;855;48.824;9.220;2023-06-22T00:58:06;23.00;90.10
1716;DHT22;855;48.824;9.220;2023-06-22T01:00:36;22.70;90.70
1716;DHT22;855;48.824;9.220;2023-06-22T01:03:03;22.40;91.20
1716;DHT22;855;48.824;9.220;2023-06-22T01:05:35;22.20;92.30
1716;DHT22;855;48.824;9.220;2023-06-22T01:08:12;22.30;92.30
1716;DHT22;855;48.824;9.220;2023-06-22T01:10:47;22.40;91.60
1716;DHT22;855;48.824;9.220;2023-06-22T01:13:26;22.40;91.50
1716;DHT22;855;48.824;9.220;2023-06-22T01:16:00;22.20;92.10
1716;DHT22;855;48.824;9.220;2023-06-22T01:18:30;21.90;92.80
1716;DHT22;855;48.824;9.220;2023-06-22T01:21:00;21.80;93.50
1716;DHT22;855;48.824;9.220;2023-06-22T01:23:36;21.90;93.30
1716;DHT22;855;48.824;9.220;2023-06-22T01:26:12;21.70;93.60
1716;DHT22;855;48.824;9.220;2023-06-22T01:29:15;21.80;93.40
1716;DHT22;855;48.824;9.220;2023-06-22T01:31:44;21.90;93.10
1716;DHT22;855;48.824;9.220;2023-06-22T01:34:12;22.10;92.70
1716;DHT22;855;48.824;9.220;2023-06-22T01:36:41;22.10;92.40
1716;DHT22;855;48.824;9.220;2023-06-22T01:39:10;22.20;92.40
1716;DHT22;855;48.824;9.220;2023-06-22T01:41:38;22.20;92.20
1716;DHT22;855;48.824;9.220;2023-06-22T01:44:06;22.30;91.50
1716;DHT22;855;48.824;9.220;2023-06-22T01:46:35;22.30;91.50
1716;DHT22;855;48.824;9.220;2023-06-22T01:49:02;22.20;91.60
1716;DHT22;855;48.824;9.220;2023-06-22T01:51:30;22.00;92.00
1716;DHT22;855;48.824;9.220;2023-06-22T01:56:25;21.60;92.70
1716;DHT22;855;48.824;9.220;2023-06-22T01:58:59;21.50;93.30
1716;DHT22;855;48.824;9.220;2023-06-22T02:01:33;21.60;93.10
1716;DHT22;855;48.824;9.220;2023-06-22T02:04:44;21.60;93.00
1716;DHT22;855;48.824;9.220;2023-06-22T02:08:06;21.70;93.00
1716;DHT22;855;48.824;9.220;2023-06-22T02:10:34;21.80;92.70
1716;DHT22;855;48.824;9.220;2023-06-22T02:13:03;21.90;92.50
1716;DHT22;855;48.824;9.220;2023-06-22T02:15:41;22.00;92.10
1716;DHT22;855;48.824;9.220;2023-06-22T02:21:33;22.00;91.60
1716;DHT22;855;48.824;9.220;2023-06-22T02:30:49;22.00;92.20
1716;DHT22;855;48.824;9.220;2023-06-22T02:33:18;21.80;92.30
1716;DHT22;855;48.824;9.220;2023-06-22T02:38:16;21.80;92.40
1716;DHT22;855;48.824;9.220;2023-06-22T02:40:43;21.90;92.30
1716;DHT22;855;48.824;9.220;2023-06-22T02:43:10;22.00;92.10
1716;DHT22;855;48.824;9.220;2023-06-22T02:45:45;22.00;92.10
1716;DHT22;855;48.824;9.220;2023-06-22T02:51:38;21.90;92.40
1716;DHT22;855;48.824;9.220;2023-06-22T02:57:34;22.10;91.90
1716;DHT22;855;48.824;9.220;2023-06-22T03:06:51;21.50;93.00
1716;DHT22;855;48.824;9.220;2023-06-22T03:12:28;21.60;93.40
1716;DHT22;855;48.824;9.220;2023-06-22T03:14:57;21.50;93.10
1716;DHT22;855;48.824;9.220;2023-06-22T03:25:42;21.30;94.70
1716;DHT22;855;48.824;9.220;2023-06-22T03:28:10;21.40;94.20
1716;DHT22;855;48.824;9.220;2023-06-22T03:30:38;21.40;93.70
1716;DHT22;855;48.824;9.220;2023-06-22T03:33:05;21.20;94.00
1716;DHT22;855;48.824;9.220;2023-06-22T03:35:32;21.20;94.10
1716;DHT22;855;48.824;9.220;2023-06-22T03:37:58;21.10;94.70
1716;DHT22;855;48.824;9.220;2023-06-22T03:40:25;21.20;94.40
1716;DHT22;855;48.824;9.220;2023-06-22T03:42:52;21.30;94.40
1716;DHT22;855;48.824;9.220;2023-06-22T03:45:19;21.50;93.70
1716;DHT22;855;48.824;9.220;2023-06-22T03:47:47;21.50;93.70
1716;DHT22;855;48.824;9.220;2023-06-22T03:50:14;21.50;93.10
1716;DHT22;855;48.824;9.220;2023-06-22T03:52:41;21.50;93.10
1716;DHT22;855;48.824;9.220;2023-06-22T03:55:08;21.50;93.70
1716;DHT22;855;48.824;9.220;2023-06-22T03:57:35;21.60;93.50
1716;DHT22;855;48.824;9.220;2023-06-22T04:00:02;21.70;93.10
1716;DHT22;855;48.824;9.220;2023-06-22T04:02:31;21.90;92.70
1716;DHT22;855;48.824;9.220;2023-06-22T04:04:59;21.80;92.10
1716;DHT22;855;48.824;9.220;2023-06-22T04:07:26;21.70;92.10
1716;DHT22;855;48.824;9.220;2023-06-22T04:09:53;21.70;92.40
1716;DHT22;855;48.824;9.220;2023-06-22T04:12:19;21.80;92.40
1716;DHT22;855;48.824;9.220;2023-06-22T04:14:46;21.90;92.40
1716;DHT22;855;48.824;9.220;2023-06-22T04:17:13;21.90;92.40
1716;DHT22;855;48.824;9.220;2023-06-22T04:19:40;22.10;91.40
1716;DHT22;855;48.824;9.220;2023-06-22T04:22:08;22.10;91.40
1716;DHT22;855;48.824;9.220;2023-06-22T04:24:36;22.10;91.60
1716;DHT22;855;48.824;9.220;2023-06-22T04:27:03;22.10;91.60
1716;DHT22;855;48.824;9.220;2023-06-22T04:29:30;22.50;91.20
1716;DHT22;855;48.824;9.220;2023-06-22T04:31:57;22.70;90.50
1716;DHT22;855;48.824;9.220;2023-06-22T04:34:29;22.90;89.30
1716;DHT22;855;48.824;9.220;2023-06-22T04:36:55;23.10;88.30
1716;DHT22;855;48.824;9.220;2023-06-22T04:39:24;23.20;88.30
1716;DHT22;855;48.824;9.220;2023-06-22T04:41:52;23.40;87.10
1716;DHT22;855;48.824;9.220;2023-06-22T04:44:20;23.90;85.30
1716;DHT22;855;48.824;9.220;2023-06-22T04:46:50;24.00;84.20
1716;DHT22;855;48.824;9.220;2023-06-22T04:49:19;24.00;84.10
1716;DHT22;855;48.824;9.220;2023-06-22T04:51:47;24.10;83.70
1716;DHT22;855;48.824;9.220;2023-06-22T04:54:14;24.30;83.00
1716;DHT22;855;48.824;9.220;2023-06-22T04:56:43;24.60;82.40
1716;DHT22;855;48.824;9.220;2023-06-22T04:59:12;24.90;81.10
1716;DHT22;855;48.824;9.220;2023-06-22T05:01:38;25.10;80.00
1716;DHT22;855;48.824;9.220;2023-06-22T05:04:05;25.40;79.20
1716;DHT22;855;48.824;9.220;2023-06-22T05:06:32;25.70;78.20
1716;DHT22;855;48.824;9.220;2023-06-22T05:08:59;26.10;77.00
1716;DHT22;855;48.824;9.220;2023-06-22T05:11:26;26.10;76.70
1716;DHT22;855;48.824;9.220;2023-06-22T05:13:55;26.30;75.90
1716;DHT22;855;48.824;9.220;2023-06-22T05:16:22;26.40;75.90
1716;DHT22;855;48.824;9.220;2023-06-22T05:18:51;26.50;75.50
1716;DHT22;855;48.824;9.220;2023-06-22T05:21:22;26.60;75.30
1716;DHT22;855;48.824;9.220;2023-06-22T05:23:49;26.90;74.50
1716;DHT22;855;48.824;9.220;2023-06-22T05:26:16;27.00;73.70
1716;DHT22;855;48.824;9.220;2023-06-22T05:28:43;27.30;71.70
1716;DHT22;855;48.824;9.220;2023-06-22T05:31:13;27.30;71.70
1716;DHT22;855;48.824;9.220;2023-06-22T05:33:40;27.30;71.30
1716;DHT22;855;48.824;9.220;2023-06-22T05:36:07;27.50;70.80
1716;DHT22;855;48.824;9.220;2023-06-22T05:38:35;27.40;70.50
1716;DHT22;855;48.824;9.220;2023-06-22T05:41:02;27.30;70.50
1716;DHT22;855;48.824;9.220;2023-06-22T05:43:29;27.00;71.70
1716;DHT22;855;48.824;9.220;2023-06-22T05:45:56;26.90;71.80
1716;DHT22;855;48.824;9.220;2023-06-22T05:48:25;27.00;72.10
1716;DHT22;855;48.824;9.220;2023-06-22T05:50:52;27.30;71.30
1716;DHT22;855;48.824;9.220;2023-06-22T05:53:19;27.30;70.90
1716;DHT22;855;48.824;9.220;2023-06-22T05:55:46;27.30;71.30
1716;DHT22;855;48.824;9.220;2023-06-22T05:58:13;27.00;70.80
1716;DHT22;855;48.824;9.220;2023-06-22T06:00:40;26.90;71.40
1716;DHT22;855;48.824;9.220;2023-06-22T06:03:07;26.90;72.20
1716;DHT22;855;48.824;9.220;2023-06-22T06:05:36;26.60;73.40
1716;DHT22;855;48.824;9.220;2023-06-22T06:08:04;26.40;73.40
1716;DHT22;855;48.824;9.220;2023-06-22T06:10:32;26.40;73.50
1716;DHT22;855;48.824;9.220;2023-06-22T06:12:59;26.50;73.80
1716;DHT22;855;48.824;9.220;2023-06-22T06:15:27;26.70;73.90
1716;DHT22;855;48.824;9.220;2023-06-22T06:17:54;26.80;73.40
1716;DHT22;855;48.824;9.220;2023-06-22T06:20:23;27.00;71.70
1716;DHT22;855;48.824;9.220;2023-06-22T06:22:51;27.00;71.70
1716;DHT22;855;48.824;9.220;2023-06-22T06:25:18;26.80;72.30
1716;DHT22;855;48.824;9.220;2023-06-22T06:27:48;26.70;73.50
1716;DHT22;855;48.824;9.220;2023-06-22T06:30:16;26.90;73.70
1716;DHT22;855;48.824;9.220;2023-06-22T06:32:44;27.20;73.30
1716;DHT22;855;48.824;9.220;2023-06-22T06:35:12;27.40;72.20
1716;DHT22;855;48.824;9.220;2023-06-22T06:37:42;27.70;71.60
1716;DHT22;855;48.824;9.220;2023-06-22T06:40:12;28.00;70.40
1716;DHT22;855;48.824;9.220;2023-06-22T06:42:40;28.20;68.40
1716;DHT22;855;48.824;9.220;2023-06-22T06:45:08;28.40;68.10
1716;DHT22;855;48.824;9.220;2023-06-22T06:47:35;28.60;67.10
1716;DHT22;855;48.824;9.220;2023-06-22T06:50:02;28.50;66.80
1716;DHT22;855;48.824;9.220;2023-06-22T06:52:28;28.70;66.10
1716;DHT22;855;48.824;9.220;2023-06-22T06:54:55;28.70;65.90
1716;DHT22;855;48.824;9.220;2023-06-22T06:57:23;29.00;66.00
1716;DHT22;855;48.824;9.220;2023-06-22T06:59:54;29.10;66.00
1716;DHT22;855;48.824;9.220;2023-06-22T07:02:21;29.20;66.40
1716;DHT22;855;48.824;9.220;2023-06-22T07:04:48;29.30;65.70
1716;DHT22;855;48.824;9.220;2023-06-22T07:07:15;29.30;65.30
1716;DHT22;855;48.824;9.220;2023-06-22T07:09:42;29.20;65.10
1716;DHT22;855;48.824;9.220;2023-06-22T07:12:09;29.10;65.20
1716;DHT22;855;48.824;9.220;2023-06-22T07:14:37;29.20;65.30
1716;DHT22;855;48.824;9.220;2023-06-22T07:17:04;29.40;64.30
1716;DHT22;855;48.824;9.220;2023-06-22T07:19:33;29.40;64.20
1716;DHT22;855;48.824;9.220;2023-06-22T07:21:59;29.60;63.60
1716;DHT22;855;48.824;9.220;2023-06-22T07:24:27;29.50;64.00
1716;DHT22;855;48.824;9.220;2023-06-22T07:26:53;29.50;64.30
1716;DHT22;855;48.824;9.220;2023-06-22T07:29:23;29.60;64.70
1716;DHT22;855;48.824;9.220;2023-06-22T07:31:51;29.20;63.10
1716;DHT22;855;48.824;9.220;2023-06-22T07:34:18;28.90;64.20
1716;DHT22;855;48.824;9.220;2023-06-22T07:36:45;28.90;64.00
1716;DHT22;855;48.824;9.220;2023-06-22T07:39:12;29.00;63.80
1716;DHT22;855;48.824;9.220;2023-06-22T07:41:40;29.00;64.80
1716;DHT22;855;48.824;9.220;2023-06-22T07:44:07;29.20;65.60
1716;DHT22;855;48.824;9.220;2023-06-22T07:46:34;29.20;63.50
1716;DHT22;855;48.824;9.220;2023-06-22T07:49:02;29.00;64.00
1716;DHT22;855;48.824;9.220;2023-06-22T07:51:29;28.90;63.40
1716;DHT22;855;48.824;9.220;2023-06-22T07:53:55;28.80;63.60
1716;DHT22;855;48.824;9.220;2023-06-22T07:56:22;28.90;64.30
1716;DHT22;855;48.824;9.220;2023-06-22T07:58:49;28.90;64.80
1716;DHT22;855;48.824;9.220;2023-06-22T08:01:16;29.10;64.00
1716;DHT22;855;48.824;9.220;2023-06-22T08:03:46;29.00;63.20
1716;DHT22;855;48.824;9.220;2023-06-22T08:06:15;29.00;63.60
1716;DHT22;855;48.824;9.220;2023-06-22T08:08:42;29.10;63.20
1716;DHT22;855;48.824;9.220;2023-06-22T08:11:09;29.00;64.70
1716;DHT22;855;48.824;9.220;2023-06-22T08:13:36;29.10;63.60
1716;DHT22;855;48.824;9.220;2023-06-22T08:16:03;29.30;63.20
1716;DHT22;855;48.824;9.220;2023-06-22T08:18:29;29.50;61.80
1716;DHT22;855;48.824;9.220;2023-06-22T08:20:56;29.90;61.50
1716;DHT22;855;48.824;9.220;2023-06-22T08:23:24;30.20;60.30
1716;DHT22;855;48.824;9.220;2023-06-22T08:25:51;30.40;59.90
1716;DHT22;855;48.824;9.220;2023-06-22T08:28:18;30.60;58.90
1716;DHT22;855;48.824;9.220;2023-06-22T08:30:45;30.40;58.00
1716;DHT22;855;48.824;9.220;2023-06-22T08:33:12;30.60;57.90
1716;DHT22;855;48.824;9.220;2023-06-22T08:35:39;30.90;57.20
1716;DHT22;855;48.824;9.220;2023-06-22T08:38:06;31.20;57.50
1716;DHT22;855;48.824;9.220;2023-06-22T08:40:35;31.30;56.80
1716;DHT22;855;48.824;9.220;2023-06-22T08:43:02;31.30;57.30
1716;DHT22;855;48.824;9.220;2023-06-22T08:45:29;31.30;56.90
1716;DHT22;855;48.824;9.220;2023-06-22T08:47:59;31.20;57.80
1716;DHT22;855;48.824;9.220;2023-06-22T08:50:26;31.00;56.80
1716;DHT22;855;48.824;9.220;2023-06-22T08:52:52;30.80;58.00
1716;DHT22;855;48.824;9.220;2023-06-22T08:55:19;30.50;58.40
1716;DHT22;855;48.824;9.220;2023-06-22T08:57:47;30.60;58.40
1716;DHT22;855;48.824;9.220;2023-06-22T09:00:15;30.80;58.50
1716;DHT22;855;48.824;9.220;2023-06-22T09:02:43;30.90;57.50
1716;DHT22;855;48.824;9.220;2023-06-22T09:05:10;31.10;57.30
1716;DHT22;855;48.824;9.220;2023-06-22T09:07:37;31.40;57.20
1716;DHT22;855;48.824;9.220;2023-06-22T09:10:05;31.60;56.40
1716;DHT22;855;48.824;9.220;2023-06-22T09:12:32;31.80;55.40
1716;DHT22;855;48.824;9.220;2023-06-22T09:15:03;31.80;55.80
1716;DHT22;855;48.824;9.220;2023-06-22T09:17:33;31.80;55.70
1716;DHT22;855;48.824;9.220;2023-06-22T09:20:00;31.60;55.90
1716;DHT22;855;48.824;9.220;2023-06-22T09:22:31;31.30;56.70
1716;DHT22;855;48.824;9.220;2023-06-22T09:24:58;31.30;56.80
1716;DHT22;855;48.824;9.220;2023-06-22T09:27:25;31.40;57.30
1716;DHT22;855;48.824;9.220;2023-06-22T09:29:52;31.50;57.50
1716;DHT22;855;48.824;9.220;2023-06-22T09:32:20;31.70;56.90
1716;DHT22;855;48.824;9.220;2023-06-22T09:34:47;31.80;55.50
1716;DHT22;855;48.824;9.220;2023-06-22T09:37:14;32.00;54.90
1716;DHT22;855;48.824;9.220;2023-06-22T09:39:41;32.00;54.90
1716;DHT22;855;48.824;9.220;2023-06-22T09:42:08;32.20;55.40
1716;DHT22;855;48.824;9.220;2023-06-22T09:44:35;32.30;54.20
1716;DHT22;855;48.824;9.220;2023-06-22T09:47:01;32.40;54.30
1716;DHT22;855;48.824;9.220;2023-06-22T09:49:30;32.20;53.90
1716;DHT22;855;48.824;9.220;2023-06-22T09:51:57;32.20;55.40
1716;DHT22;855;48.824;9.220;2023-06-22T09:54:24;32.10;55.30
1716;DHT22;855;48.824;9.220;2023-06-22T09:56:51;32.30;54.70
1716;DHT22;855;48.824;9.220;2023-06-22T09:59:18;32.00;54.40
1716;DHT22;855;48.824;9.220;2023-06-22T10:01:45;31.80;54.70
1716;DHT22;855;48.824;9.220;2023-06-22T10:04:11;31.80;55.20
1716;DHT22;855;48.824;9.220;2023-06-22T10:06:40;32.00;54.90
1716;DHT22;855;48.824;9.220;2023-06-22T10:09:07;32.20;54.20
1716;DHT22;855;48.824;9.220;2023-06-22T10:11:34;32.20;54.40
1716;DHT22;855;48.824;9.220;2023-06-22T10:14:01;32.30;54.30
1716;DHT22;855;48.824;9.220;2023-06-22T10:16:31;32.20;54.80
1716;DHT22;855;48.824;9.220;2023-06-22T10:18:58;32.30;53.70
1716;DHT22;855;48.824;9.220;2023-06-22T10:21:24;32.50;53.30
1716;DHT22;855;48.824;9.220;2023-06-22T10:23:54;32.70;53.30
1716;DHT22;855;48.824;9.220;2023-06-22T10:26:20;33.00;52.80
1716;DHT22;855;48.824;9.220;2023-06-22T10:28:47;32.80;52.90
1716;DHT22;855;48.824;9.220;2023-06-22T10:31:14;32.60;53.60
1716;DHT22;855;48.824;9.220;2023-06-22T10:33:42;32.70;53.60
1716;DHT22;855;48.824;9.220;2023-06-22T10:36:09;32.70;54.30
1716;DHT22;855;48.824;9.220;2023-06-22T10:38:36;32.90;53.10
1716;DHT22;855;48.824;9.220;2023-06-22T10:41:04;33.10;53.40
1716;DHT22;855;48.824;9.220;2023-06-22T10:43:34;33.20;52.30
1716;DHT22;855;48.824;9.220;2023-06-22T10:46:01;33.40;51.90
1716;DHT22;855;48.824;9.220;2023-06-22T10:48:28;33.70;51.80
1716;DHT22;855;48.824;9.220;2023-06-22T10:50:54;33.80;51.20
1716;DHT22;855;48.824;9.220;2023-06-22T10:53:21;33.90;50.30
1716;DHT22;855;48.824;9.220;2023-06-22T10:55:48;33.80;51.10
1716;DHT22;855;48.824;9.220;2023-06-22T10:58:18;33.80;51.40
1716;DHT22;855;48.824;9.220;2023-06-22T11:00:45;34.00;50.60
1716;DHT22;855;48.824;9.220;2023-06-22T11:03:12;34.20;50.10
1716;DHT22;855;48.824;9.220;2023-06-22T11:05:39;34.40;49.40
1716;DHT22;855;48.824;9.220;2023-06-22T11:08:09;34.40;49.80
1716;DHT22;855;48.824;9.220;2023-06-22T11:10:36;34.30;50.70
1716;DHT22;855;48.824;9.220;2023-06-22T11:13:03;34.40;49.90
1716;DHT22;855;48.824;9.220;2023-06-22T11:15:32;34.20;50.10
1716;DHT22;855;48.824;9.220;2023-06-22T11:17:59;33.80;49.80
1716;DHT22;855;48.824;9.220;2023-06-22T11:20:26;33.80;50.80
1716;DHT22;855;48.824;9.220;2023-06-22T11:22:52;33.80;50.70
1716;DHT22;855;48.824;9.220;2023-06-22T11:25:19;33.80;52.10
1716;DHT22;855;48.824;9.220;2023-06-22T11:27:46;33.80;52.20
1716;DHT22;855;48.824;9.220;2023-06-22T11:30:13;34.10;51.10
1716;DHT22;855;48.824;9.220;2023-06-22T11:32:41;34.10;51.30
1716;DHT22;855;48.824;9.220;2023-06-22T11:35:08;34.10;50.40
1716;DHT22;855;48.824;9.220;2023-06-22T11:37:35;34.10;51.10
1716;DHT22;855;48.824;9.220;2023-06-22T11:40:02;34.00;50.20
1716;DHT22;855;48.824;9.220;2023-06-22T11:42:33;34.00;49.90
1716;DHT22;855;48.824;9.220;2023-06-22T11:45:00;34.00;50.10
1716;DHT22;855;48.824;9.220;2023-06-22T11:47:29;34.10;51.10
1716;DHT22;855;48.824;9.220;2023-06-22T11:49:57;34.30;49.40
1716;DHT22;855;48.824;9.220;2023-06-22T11:52:24;34.30;49.90
1716;DHT22;855;48.824;9.220;2023-06-22T11:54:52;34.10;49.70
1716;DHT22;855;48.824;9.220;2023-06-22T11:57:19;34.10;50.10
1716;DHT22;855;48.824;9.220;2023-06-22T11:59:46;34.10;50.90
1716;DHT22;855;48.824;9.220;2023-06-22T12:02:13;34.30;50.10
1716;DHT22;855;48.824;9.220;2023-06-22T12:04:40;34.30;50.70
1716;DHT22;855;48.824;9.220;2023-06-22T12:07:08;34.40;49.70
1716;DHT22;855;48.824;9.220;2023-06-22T12:09:35;34.60;50.30
1716;DHT22;855;48.824;9.220;2023-06-22T12:12:02;34.80;49.70
1716;DHT22;855;48.824;9.220;2023-06-22T12:14:30;35.00;48.80
1716;DHT22;855;48.824;9.220;2023-06-22T12:16:57;35.10;49.30
1716;DHT22;855;48.824;9.220;2023-06-22T12:19:23;35.40;47.50
1716;DHT22;855;48.824;9.220;2023-06-22T12:21:50;35.40;47.70
1716;DHT22;855;48.824;9.220;2023-06-22T12:24:18;35.40;48.70
1716;DHT22;855;48.824;9.220;2023-06-22T12:26:45;35.30;50.60
1716;DHT22;855;48.824;9.220;2023-06-22T12:29:12;35.30;46.70
1716;DHT22;855;48.824;9.220;2023-06-22T12:31:39;35.50;47.00
1716;DHT22;855;48.824;9.220;2023-06-22T12:34:07;35.50;47.20
1716;DHT22;855;48.824;9.220;2023-06-22T12:36:34;35.50;48.40
1716;DHT22;855;48.824;9.220;2023-06-22T12:39:00;35.40;48.30
1716;DHT22;855;48.824;9.220;2023-06-22T12:41:29;35.40;47.20
1716;DHT22;855;48.824;9.220;2023-06-22T12:43:55;35.40;49.70
1716;DHT22;855;48.824;9.220;2023-06-22T12:46:22;35.40;47.60
1716;DHT22;855;48.824;9.220;2023-06-22T12:48:49;35.20;48.70
1716;DHT22;855;48.824;9.220;2023-06-22T12:51:21;35.10;47.80
1716;DHT22;855;48.824;9.220;2023-06-22T12:53:48;35.10;48.90
1716;DHT22;855;48.824;9.220;2023-06-22T12:56:15;35.20;49.10
1716;DHT22;855;48.824;9.220;2023-06-22T12:58:43;35.30;47.90
1716;DHT22;855;48.824;9.220;2023-06-22T13:01:10;35.30;49.20
1716;DHT22;855;48.824;9.220;2023-06-22T13:03:37;35.20;48.90
1716;DHT22;855;48.824;9.220;2023-06-22T13:06:04;35.10;48.70
1716;DHT22;855;48.824;9.220;2023-06-22T13:08:32;35.10;49.10
1716;DHT22;855;48.824;9.220;2023-06-22T13:10:58;35.00;48.10
1716;DHT22;855;48.824;9.220;2023-06-22T13:13:25;34.70;48.90
1716;DHT22;855;48.824;9.220;2023-06-22T13:15:54;34.70;48.80
1716;DHT22;855;48.824;9.220;2023-06-22T13:18:20;34.80;49.40
1716;DHT22;855;48.824;9.220;2023-06-22T13:20:47;34.80;49.60
1716;DHT22;855;48.824;9.220;2023-06-22T13:23:14;34.80;50.40
1716;DHT22;855;48.824;9.220;2023-06-22T13:25:41;34.90;51.20
1716;DHT22;855;48.824;9.220;2023-06-22T13:28:08;34.80;51.60
1716;DHT22;855;48.824;9.220;2023-06-22T13:30:35;34.80;51.30
1716;DHT22;855;48.824;9.220;2023-06-22T13:33:04;34.90;51.20
1716;DHT22;855;48.824;9.220;2023-06-22T13:35:30;35.10;49.30
1716;DHT22;855;48.824;9.220;2023-06-22T13:37:57;35.20;48.30
1716;DHT22;855;48.824;9.220;2023-06-22T13:40:24;35.20;49.20
1716;DHT22;855;48.824;9.220;2023-06-22T13:42:51;35.20;49.40
1716;DHT22;855;48.824;9.220;2023-06-22T13:45:18;35.20;48.40
1716;DHT22;855;48.824;9.220;2023-06-22T13:47:45;35.20;48.70
1716;DHT22;855;48.824;9.220;2023-06-22T13:50:14;35.20;49.70
1716;DHT22;855;48.824;9.220;2023-06-22T13:52:41;35.10;50.40
1716;DHT22;855;48.824;9.220;2023-06-22T13:55:09;35.10;47.90
1716;DHT22;855;48.824;9.220;2023-06-22T13:57:36;35.10;47.90
1716;DHT22;855;48.824;9.220;2023-06-22T14:00:04;35.20;50.10
1716;DHT22;855;48.824;9.220;2023-06-22T14:02:31;35.30;49.20
1716;DHT22;855;48.824;9.220;2023-06-22T14:04:58;35.20;49.30
1716;DHT22;855;48.824;9.220;2023-06-22T14:07:28;35.20;49.70
1716;DHT22;855;48.824;9.220;2023-06-22T14:09:54;35.10;48.80
1716;DHT22;855;48.824;9.220;2023-06-22T14:12:21;35.10;49.30
1716;DHT22;855;48.824;9.220;2023-06-22T14:14:48;35.20;49.40
1716;DHT22;855;48.824;9.220;2023-06-22T14:17:15;35.40;49.60
1716;DHT22;855;48.824;9.220;2023-06-22T14:19:42;35.40;48.60
1716;DHT22;855;48.824;9.220;2023-06-22T14:22:08;35.50;47.80
1716;DHT22;855;48.824;9.220;2023-06-22T14:24:37;35.60;48.10
1716;DHT22;855;48.824;9.220;2023-06-22T14:27:04;35.80;45.10
1716;DHT22;855;48.824;9.220;2023-06-22T14:29:36;35.80;45.10
1716;DHT22;855;48.824;9.220;2023-06-22T14:32:03;36.00;45.10
1716;DHT22;855;48.824;9.220;2023-06-22T14:34:31;35.90;44.30
1716;DHT22;855;48.824;9.220;2023-06-22T14:37:01;35.80;44.70
1716;DHT22;855;48.824;9.220;2023-06-22T14:39:28;35.70;44.60
1716;DHT22;855;48.824;9.220;2023-06-22T14:41:56;35.70;44.70
1716;DHT22;855;48.824;9.220;2023-06-22T14:44:23;35.60;44.80
1716;DHT22;855;48.824;9.220;2023-06-22T14:46:50;35.50;44.60
1716;DHT22;855;48.824;9.220;2023-06-22T14:49:16;35.30;44.80
1716;DHT22;855;48.824;9.220;2023-06-22T14:51:45;35.30;46.60
1716;DHT22;855;48.824;9.220;2023-06-22T14:54:12;35.40;45.10
1716;DHT22;855;48.824;9.220;2023-06-22T14:56:39;35.40;45.80
1716;DHT22;855;48.824;9.220;2023-06-22T14:59:07;35.50;46.50
1716;DHT22;855;48.824;9.220;2023-06-22T15:01:34;35.50;45.50
1716;DHT22;855;48.824;9.220;2023-06-22T15:04:01;35.50;45.60
1716;DHT22;855;48.824;9.220;2023-06-22T15:06:28;35.50;44.50
1716;DHT22;855;48.824;9.220;2023-06-22T15:08:55;35.50;44.70
1716;DHT22;855;48.824;9.220;2023-06-22T15:11:21;35.50;44.10
1716;DHT22;855;48.824;9.220;2023-06-22T15:13:48;35.20;41.70
1716;DHT22;855;48.824;9.220;2023-06-22T15:16:16;35.00;40.10
1716;DHT22;855;48.824;9.220;2023-06-22T15:18:43;35.00;36.70
1716;DHT22;855;48.824;9.220;2023-06-22T15:21:11;34.80;35.70
1716;DHT22;855;48.824;9.220;2023-06-22T15:23:39;34.80;36.20
1716;DHT22;855;48.824;9.220;2023-06-22T15:26:06;34.90;36.90
1716;DHT22;855;48.824;9.220;2023-06-22T15:28:33;35.10;36.50
1716;DHT22;855;48.824;9.220;2023-06-22T15:31:02;35.20;36.20
1716;DHT22;855;48.824;9.220;2023-06-22T15:33:31;35.20;35.30
1716;DHT22;855;48.824;9.220;2023-06-22T15:35:58;35.20;36.50
1716;DHT22;855;48.824;9.220;2023-06-22T15:38:29;35.20;35.00
1716;DHT22;855;48.824;9.220;2023-06-22T15:40:56;35.00;35.50
1716;DHT22;855;48.824;9.220;2023-06-22T15:43:23;35.00;35.50
1716;DHT22;855;48.824;9.220;2023-06-22T15:45:50;34.90;34.80
1716;DHT22;855;48.824;9.220;2023-06-22T15:48:19;34.80;35.40
1716;DHT22;855;48.824;9.220;2023-06-22T15:50:47;34.90;36.00
1716;DHT22;855;48.824;9.220;2023-06-22T15:53:14;34.90;36.50
1716;DHT22;855;48.824;9.220;2023-06-22T15:55:41;34.90;36.20
1716;DHT22;855;48.824;9.220;2023-06-22T15:58:08;34.90;36.10
1716;DHT22;855;48.824;9.220;2023-06-22T16:00:38;35.20;36.00
1716;DHT22;855;48.824;9.220;2023-06-22T16:05:32;35.10;37.70
1716;DHT22;855;48.824;9.220;2023-06-22T16:08:00;35.10;35.90
1716;DHT22;855;48.824;9.220;2023-06-22T16:10:27;35.10;35.70
1716;DHT22;855;48.824;9.220;2023-06-22T16:12:54;34.80;35.50
1716;DHT22;855;48.824;9.220;2023-06-22T16:15:20;34.80;36.70
1716;DHT22;855;48.824;9.220;2023-06-22T16:17:47;34.60;37.90
1716;DHT22;855;48.824;9.220;2023-06-22T16:20:14;34.50;38.40
1716;DHT22;855;48.824;9.220;2023-06-22T16:22:45;34.40;37.90
1716;DHT22;855;48.824;9.220;2023-06-22T16:25:13;34.10;37.40
1716;DHT22;855;48.824;9.220;2023-06-22T16:27:44;33.80;37.60
1716;DHT22;855;48.824;9.220;2023-06-22T16:30:11;33.60;37.90
1716;DHT22;855;48.824;9.220;2023-06-22T16:32:38;33.60;38.00
1716;DHT22;855;48.824;9.220;2023-06-22T16:35:06;33.60;36.90
1716;DHT22;855;48.824;9.220;2023-06-22T16:37:33;33.30;37.60
1716;DHT22;855;48.824;9.220;2023-06-22T16:40:00;33.20;37.50
1716;DHT22;855;48.824;9.220;2023-06-22T16:42:28;33.10;38.10
1716;DHT22;855;48.824;9.220;2023-06-22T16:44:55;33.00;38.20
1716;DHT22;855;48.824;9.220;2023-06-22T16:47:22;32.90;39.00
1716;DHT22;855;48.824;9.220;2023-06-22T16:49:49;32.90;39.50
1716;DHT22;855;48.824;9.220;2023-06-22T16:52:15;32.80;39.60
1716;DHT22;855;48.824;9.220;2023-06-22T16:54:42;32.80;39.90
1716;DHT22;855;48.824;9.220;2023-06-22T16:57:12;32.90;40.40
1716;DHT22;855;48.824;9.220;2023-06-22T16:59:41;32.90;40.10
1716;DHT22;855;48.824;9.220;2023-06-22T17:02:14;32.70;40.00
1716;DHT22;855;48.824;9.220;2023-06-22T17:04:44;32.70;40.70